createdAt,value
2022-08-01T00:01:39.611Z,9.90
2022-08-01T00:04:09.770Z,9.90
2022-08-01T00:06:39.644Z,9.90
2022-08-01T00:09:09.809Z,8.90
2022-08-01T00:11:39.626Z,8.90
2022-08-01T00:14:09.633Z,8.90
2022-08-01T00:16:39.640Z,8.90
2022-08-01T00:19:09.527Z,9.60
2022-08-01T00:21:39.610Z,9.60
2022-08-01T00:24:09.811Z,9.60
2022-08-01T00:26:39.556Z,9.60
2022-08-01T00:29:11.642Z,11.00
2022-08-01T00:31:39.813Z,11.00
2022-08-01T00:34:09.559Z,11.00
2022-08-01T00:39:09.653Z,13.30
2022-08-01T00:41:39.836Z,13.30
2022-08-01T00:44:09.796Z,13.30
2022-08-01T00:49:10.529Z,10.10
2022-08-01T00:54:09.832Z,10.10
2022-08-01T00:56:39.635Z,10.10
2022-08-01T00:59:11.640Z,10.80
2022-08-01T01:01:40.190Z,10.80
2022-08-01T01:06:48.678Z,10.80
2022-08-01T01:09:21.074Z,11.40
2022-08-01T01:14:16.764Z,11.40
2022-08-01T01:16:42.463Z,11.40
2022-08-01T01:19:16.252Z,9.20
2022-08-01T01:26:48.089Z,9.20
2022-08-01T01:29:15.768Z,8.00
2022-08-01T01:31:44.160Z,8.00
2022-08-01T01:34:12.796Z,8.00
2022-08-01T01:36:40.872Z,8.00
2022-08-01T01:39:11.041Z,11.10
2022-08-01T01:46:41.860Z,11.10
2022-08-01T01:49:11.637Z,13.40
2022-08-01T01:51:42.491Z,13.40
2022-08-01T01:56:48.704Z,13.40
2022-08-01T01:59:09.734Z,14.00
2022-08-01T02:02:05.394Z,14.00
2022-08-01T02:06:40.600Z,14.00
2022-08-01T02:09:10.292Z,21.90
2022-08-01T02:11:59.214Z,21.90
2022-08-01T02:14:11.839Z,21.90
2022-08-01T02:21:44.787Z,19.00
2022-08-01T02:24:16.880Z,19.00
2022-08-01T02:26:44.401Z,19.00
2022-08-01T02:29:15.036Z,20.00
2022-08-01T02:31:44.943Z,20.00
2022-08-01T02:34:13.174Z,20.00
2022-08-01T02:39:13.277Z,16.80
2022-08-01T02:41:42.671Z,16.80
2022-08-01T02:44:14.975Z,16.80
2022-08-01T02:46:44.613Z,16.80
2022-08-01T02:49:11.888Z,20.90
2022-08-01T02:51:41.222Z,20.90
2022-08-01T02:54:11.366Z,20.90
2022-08-01T02:59:14.612Z,15.90
2022-08-01T03:06:41.364Z,15.90
2022-08-01T03:09:10.790Z,14.30
2022-08-01T03:14:12.861Z,14.30
2022-08-01T03:16:42.467Z,14.30
2022-08-01T03:19:11.556Z,11.70
2022-08-01T03:21:41.072Z,11.70
2022-08-01T03:24:11.536Z,11.70
2022-08-01T03:26:41.785Z,11.70
2022-08-01T03:29:14.638Z,11.90
2022-08-01T03:31:43.616Z,11.90
2022-08-01T03:39:13.064Z,12.70
2022-08-01T03:41:43.634Z,12.70
2022-08-01T03:44:15.283Z,12.70
2022-08-01T03:46:43.726Z,12.70
2022-08-01T03:49:13.524Z,19.70
2022-08-01T03:51:40.644Z,19.70
2022-08-01T03:54:10.982Z,19.70
2022-08-01T03:56:41.895Z,19.70
2022-08-01T03:59:10.502Z,15.70
2022-08-01T04:01:40.090Z,15.70
2022-08-01T04:04:09.975Z,15.70
2022-08-01T04:06:40.480Z,15.70
2022-08-01T04:09:13.602Z,17.60
2022-08-01T04:14:09.675Z,17.60
2022-08-01T04:16:39.800Z,17.60
2022-08-01T04:19:09.874Z,19.60
2022-08-01T04:21:40.198Z,19.60
2022-08-01T04:26:40.954Z,19.60
2022-08-01T04:29:11.803Z,17.00
2022-08-01T04:31:44.318Z,17.00
2022-08-01T04:34:14.177Z,17.00
2022-08-01T04:36:41.996Z,17.00
2022-08-01T04:39:10.945Z,23.30
2022-08-01T04:41:40.690Z,23.30
2022-08-01T04:44:09.745Z,23.30
2022-08-01T04:46:40.618Z,23.30
2022-08-01T04:49:11.778Z,21.60
2022-08-01T04:56:40.117Z,21.60
2022-08-01T04:59:20.346Z,22.60
2022-08-01T05:01:39.747Z,22.60
2022-08-01T05:06:39.907Z,22.60
2022-08-01T05:09:09.988Z,23.10
2022-08-01T05:11:39.720Z,23.10
2022-08-01T05:14:09.735Z,23.10
2022-08-01T05:16:39.712Z,23.10
2022-08-01T05:19:09.864Z,20.40
2022-08-01T05:21:39.812Z,20.40
2022-08-01T05:26:40.139Z,20.40
2022-08-01T05:29:09.709Z,25.20
2022-08-01T05:31:39.727Z,25.20
2022-08-01T05:39:10.016Z,21.70
2022-08-01T05:41:40.543Z,21.70
2022-08-01T05:44:09.953Z,21.70
2022-08-01T05:46:39.959Z,21.70
2022-08-01T05:51:40.144Z,21.10
2022-08-01T05:54:09.693Z,21.10
2022-08-01T05:56:39.991Z,21.10
2022-08-01T05:59:09.821Z,17.00
2022-08-01T06:01:39.947Z,17.00
2022-08-01T06:04:09.993Z,17.00
2022-08-01T06:06:39.694Z,17.00
2022-08-01T06:09:09.844Z,19.90
2022-08-01T06:11:39.849Z,19.90
2022-08-01T06:14:10.098Z,19.90
2022-08-01T06:16:39.904Z,19.90
2022-08-01T06:19:09.732Z,18.00
2022-08-01T06:21:39.780Z,18.00
2022-08-01T06:24:09.760Z,18.00
2022-08-01T06:26:39.848Z,18.00
2022-08-01T06:29:10.205Z,17.10
2022-08-01T06:31:39.778Z,17.10
2022-08-01T06:34:09.883Z,17.10
2022-08-01T06:36:39.777Z,17.10
2022-08-01T06:39:09.927Z,18.80
2022-08-01T06:41:41.481Z,18.80
2022-08-01T06:44:09.737Z,18.80
2022-08-01T06:46:39.775Z,18.80
2022-08-01T06:49:09.986Z,18.20
2022-08-01T06:51:40.309Z,18.20
2022-08-01T06:54:09.791Z,18.20
2022-08-01T06:56:39.801Z,18.20
2022-08-01T06:59:10.009Z,12.00
2022-08-01T07:01:39.839Z,12.00
2022-08-01T07:04:09.776Z,12.00
2022-08-01T07:06:39.895Z,12.00
2022-08-01T07:09:14.211Z,17.50
2022-08-01T07:11:39.753Z,17.50
2022-08-01T07:14:09.789Z,17.50
2022-08-01T07:16:39.853Z,17.50
2022-08-01T07:19:09.836Z,13.70
2022-08-01T07:21:41.339Z,13.70
2022-08-01T07:24:15.151Z,13.70
2022-08-01T07:26:41.165Z,13.70
2022-08-01T07:29:09.754Z,15.10
2022-08-01T07:31:39.909Z,15.10
2022-08-01T07:34:09.943Z,15.10
2022-08-01T07:36:39.775Z,15.10
2022-08-01T07:39:09.917Z,11.00
2022-08-01T07:41:52.807Z,11.00
2022-08-01T07:44:09.809Z,11.00
2022-08-01T07:46:39.890Z,11.00
2022-08-01T07:49:10.018Z,14.80
2022-08-01T07:51:40.026Z,14.80
2022-08-01T07:54:09.758Z,14.80
2022-08-01T07:56:39.963Z,14.80
2022-08-01T07:59:09.998Z,10.70
2022-08-01T08:01:39.954Z,10.70
2022-08-01T08:04:09.767Z,10.70
2022-08-01T08:06:41.284Z,10.70
2022-08-01T08:09:09.808Z,13.70
2022-08-01T08:11:44.565Z,13.70
2022-08-01T08:14:10.065Z,13.70
2022-08-01T08:16:39.787Z,13.70
2022-08-01T08:19:10.268Z,12.40
2022-08-01T08:21:40.245Z,12.40
2022-08-01T08:24:20.417Z,12.40
2022-08-01T08:26:39.767Z,12.40
2022-08-01T08:29:09.817Z,11.10
2022-08-01T08:31:51.719Z,11.10
2022-08-01T08:34:10.283Z,11.10
2022-08-01T08:36:40.114Z,11.10
2022-08-01T08:39:09.824Z,10.60
2022-08-01T08:41:40.127Z,10.60
2022-08-01T08:44:10.839Z,10.60
2022-08-01T08:46:42.479Z,10.60
2022-08-01T08:49:11.387Z,8.70
2022-08-01T08:51:42.460Z,8.70
2022-08-01T08:54:12.659Z,8.70
2022-08-01T08:56:41.897Z,8.70
2022-08-01T08:59:13.209Z,8.60
2022-08-01T09:01:40.452Z,8.60
2022-08-01T09:04:11.201Z,8.60
2022-08-01T09:06:40.455Z,8.60
2022-08-01T09:09:10.732Z,11.00
2022-08-01T09:11:39.965Z,11.00
2022-08-01T09:14:11.886Z,11.00
2022-08-01T09:16:47.952Z,11.00
2022-08-01T09:19:16.132Z,10.00
2022-08-01T09:21:51.958Z,10.00
2022-08-01T09:24:15.252Z,10.00
2022-08-01T09:26:40.750Z,10.00
2022-08-01T09:29:38.060Z,11.10
2022-08-01T09:31:42.368Z,11.10
2022-08-01T09:34:10.721Z,11.10
2022-08-01T09:36:51.425Z,11.10
2022-08-01T09:39:13.681Z,9.00
2022-08-01T09:41:40.529Z,9.00
2022-08-01T09:44:10.275Z,9.00
2022-08-01T09:46:50.980Z,9.00
2022-08-01T09:49:10.916Z,7.90
2022-08-01T09:51:59.767Z,7.90
2022-08-01T09:54:09.900Z,7.90
2022-08-01T09:56:42.489Z,7.90
2022-08-01T09:59:10.073Z,10.30
2022-08-01T10:01:45.737Z,10.30
2022-08-01T10:04:11.749Z,10.30
2022-08-01T10:06:42.814Z,10.30
2022-08-01T10:09:11.899Z,9.10
2022-08-01T10:11:42.188Z,9.10
2022-08-01T10:14:12.190Z,9.10
2022-08-01T10:16:40.395Z,9.10
2022-08-01T10:19:11.339Z,8.50
2022-08-01T10:21:58.593Z,8.50
2022-08-01T10:24:11.298Z,8.50
2022-08-01T10:26:40.637Z,8.50
2022-08-01T10:29:46.838Z,7.10
2022-08-01T10:31:39.974Z,7.10
2022-08-01T10:34:11.285Z,7.10
2022-08-01T10:36:40.873Z,7.10
2022-08-01T10:39:10.960Z,9.40
2022-08-01T10:41:41.575Z,9.40
2022-08-01T10:44:09.975Z,9.40
2022-08-01T10:46:46.758Z,9.40
2022-08-01T10:49:13.399Z,9.00
2022-08-01T10:51:51.346Z,9.00
2022-08-01T10:54:11.983Z,9.00
2022-08-01T10:56:43.943Z,9.00
2022-08-01T10:59:11.918Z,7.70
2022-08-01T11:01:44.749Z,7.70
2022-08-01T11:04:16.649Z,7.70
2022-08-01T11:06:46.399Z,7.70
2022-08-01T11:09:24.552Z,7.70
2022-08-01T11:11:57.517Z,7.70
2022-08-01T11:14:11.886Z,7.70
2022-08-01T11:16:40.759Z,7.70
2022-08-01T11:19:10.666Z,7.00
2022-08-01T11:22:03.803Z,7.00
2022-08-01T11:24:09.938Z,7.00
2022-08-01T11:26:59.658Z,7.00
2022-08-01T11:29:19.926Z,11.20
2022-08-01T11:31:40.865Z,11.20
2022-08-01T11:34:10.244Z,11.20
2022-08-01T11:36:58.601Z,11.20
2022-08-01T11:39:16.738Z,8.00
2022-08-01T11:41:41.212Z,8.00
2022-08-01T11:44:13.410Z,8.00
2022-08-01T11:46:52.945Z,8.00
2022-08-01T11:49:29.655Z,7.10
2022-08-01T11:51:39.970Z,7.10
2022-08-01T11:54:10.053Z,7.10
2022-08-01T11:56:42.958Z,7.10
2022-08-01T11:59:15.177Z,10.40
2022-08-01T12:01:41.324Z,10.40
2022-08-01T12:04:09.931Z,10.40
2022-08-01T12:06:40.675Z,10.40
2022-08-01T12:09:19.426Z,6.40
2022-08-01T12:11:40.067Z,6.40
2022-08-01T12:14:15.164Z,6.40
2022-08-01T12:16:39.945Z,6.40
2022-08-01T12:19:11.589Z,7.70
2022-08-01T12:21:40.185Z,7.70
2022-08-01T12:24:09.910Z,7.70
2022-08-01T12:26:40.846Z,7.70
2022-08-01T12:29:10.061Z,7.30
2022-08-01T12:31:40.012Z,7.30
2022-08-01T12:34:28.037Z,7.30
2022-08-01T12:36:39.951Z,7.30
2022-08-01T12:39:09.981Z,7.90
2022-08-01T12:41:43.172Z,7.90
2022-08-01T12:44:14.050Z,7.90
2022-08-01T12:46:44.368Z,7.90
2022-08-01T12:49:10.506Z,7.10
2022-08-01T12:51:40.283Z,7.10
2022-08-01T12:54:10.179Z,7.10
2022-08-01T12:56:40.096Z,7.10
2022-08-01T12:59:20.436Z,7.10
2022-08-01T13:01:42.091Z,7.10
2022-08-01T13:04:09.924Z,7.10
2022-08-01T13:06:40.004Z,7.10
2022-08-01T13:09:11.510Z,6.40
2022-08-01T13:11:54.019Z,6.40
2022-08-01T13:14:10.120Z,6.40
2022-08-01T13:16:56.939Z,6.40
2022-08-01T13:19:09.966Z,10.00
2022-08-01T13:21:55.064Z,10.00
2022-08-01T13:24:12.183Z,10.00
2022-08-01T13:26:42.200Z,10.00
2022-08-01T13:29:11.738Z,7.20
2022-08-01T13:31:41.119Z,7.20
2022-08-01T13:34:11.641Z,7.20
2022-08-01T13:36:46.867Z,7.20
2022-08-01T13:39:19.991Z,7.80
2022-08-01T13:41:40.087Z,7.80
2022-08-01T13:44:10.648Z,7.80
2022-08-01T13:46:49.517Z,7.80
2022-08-01T13:49:16.343Z,6.00
2022-08-01T13:51:40.479Z,6.00
2022-08-01T13:54:10.205Z,6.00
2022-08-01T13:56:40.085Z,6.00
2022-08-01T13:59:10.327Z,9.10
2022-08-01T14:01:40.263Z,9.10
2022-08-01T14:04:10.189Z,9.10
2022-08-01T14:06:40.006Z,9.10
2022-08-01T14:09:17.521Z,8.00
2022-08-01T14:11:40.192Z,8.00
2022-08-01T14:14:09.947Z,8.00
2022-08-01T14:16:40.244Z,8.00
2022-08-01T14:19:09.964Z,7.50
2022-08-01T14:21:40.072Z,7.50
2022-08-01T14:24:10.228Z,7.50
2022-08-01T14:26:39.966Z,7.50
2022-08-01T14:29:10.240Z,8.20
2022-08-01T14:31:40.494Z,8.20
2022-08-01T14:34:10.057Z,8.20
2022-08-01T14:36:40.163Z,8.20
2022-08-01T14:39:15.101Z,8.50
2022-08-01T14:41:40.370Z,8.50
2022-08-01T14:44:10.114Z,8.50
2022-08-01T14:46:57.092Z,8.50
2022-08-01T14:49:10.530Z,6.30
2022-08-01T14:51:39.992Z,6.30
2022-08-01T14:54:10.073Z,6.30
2022-08-01T14:56:40.035Z,6.30
2022-08-01T14:59:21.050Z,8.30
2022-08-01T15:01:40.304Z,8.30
2022-08-01T15:04:10.076Z,8.30
2022-08-01T15:06:40.282Z,8.30
2022-08-01T15:09:10.465Z,7.60
2022-08-01T15:11:40.111Z,7.60
2022-08-01T15:14:19.971Z,7.60
2022-08-01T15:16:40.132Z,7.60
2022-08-01T15:19:10.072Z,8.70
2022-08-01T15:21:42.011Z,8.70
2022-08-01T15:24:10.058Z,8.70
2022-08-01T15:26:40.132Z,8.70
2022-08-01T15:29:10.036Z,8.80
2022-08-01T15:31:40.217Z,8.80
2022-08-01T15:34:10.051Z,8.80
2022-08-01T15:36:42.074Z,8.80
2022-08-01T15:39:10.266Z,8.70
2022-08-01T15:41:40.025Z,8.70
2022-08-01T15:44:10.369Z,8.70
2022-08-01T15:46:40.260Z,8.70
2022-08-01T15:49:10.725Z,9.40
2022-08-01T15:51:40.830Z,9.40
2022-08-01T15:54:14.591Z,9.40
2022-08-01T15:56:40.119Z,9.40
2022-08-01T15:59:10.897Z,8.00
2022-08-01T16:01:40.622Z,8.00
2022-08-01T16:04:10.210Z,8.00
2022-08-01T16:06:40.137Z,8.00
2022-08-01T16:09:10.215Z,7.60
2022-08-01T16:11:43.078Z,7.60
2022-08-01T16:14:10.178Z,7.60
2022-08-01T16:16:40.846Z,7.60
2022-08-01T16:19:10.113Z,7.90
2022-08-01T16:21:42.054Z,7.90
2022-08-01T16:24:10.109Z,7.90
2022-08-01T16:26:40.191Z,7.90
2022-08-01T16:29:10.517Z,8.80
2022-08-01T16:31:48.039Z,8.80
2022-08-01T16:34:10.259Z,8.80
2022-08-01T16:36:40.102Z,8.80
2022-08-01T16:39:10.416Z,10.50
2022-08-01T16:41:41.564Z,10.50
2022-08-01T16:44:10.126Z,10.50
2022-08-01T16:46:40.234Z,10.50
2022-08-01T16:49:10.194Z,8.60
2022-08-01T16:51:48.254Z,8.60
2022-08-01T16:54:25.689Z,8.60
2022-08-01T16:56:40.178Z,8.60
2022-08-01T16:59:10.170Z,8.40
2022-08-01T17:01:58.863Z,8.40
2022-08-01T17:04:10.235Z,8.40
2022-08-01T17:06:40.202Z,8.40
2022-08-01T17:09:10.147Z,8.60
2022-08-01T17:11:40.280Z,8.60
2022-08-01T17:14:10.103Z,8.60
2022-08-01T17:16:40.260Z,8.60
2022-08-01T17:19:10.200Z,8.30
2022-08-01T17:21:41.533Z,8.30
2022-08-01T17:24:10.241Z,8.30
2022-08-01T17:26:40.089Z,8.30
2022-08-01T17:29:10.199Z,8.00
2022-08-01T17:31:40.165Z,8.00
2022-08-01T17:34:10.085Z,8.00
2022-08-01T17:36:40.598Z,8.00
2022-08-01T17:39:11.534Z,8.50
2022-08-01T17:41:40.782Z,8.50
2022-08-01T17:44:10.472Z,8.50
2022-08-01T17:46:40.152Z,8.50
2022-08-01T17:49:10.336Z,6.50
2022-08-01T17:51:40.323Z,6.50
2022-08-01T17:56:44.268Z,6.50
2022-08-01T17:59:10.086Z,10.00
2022-08-01T18:01:45.253Z,10.00
2022-08-01T18:04:10.524Z,10.00
2022-08-01T18:06:40.293Z,10.00
2022-08-01T18:09:11.252Z,9.30
2022-08-01T18:11:40.090Z,9.30
2022-08-01T18:14:10.413Z,9.30
2022-08-01T18:16:40.295Z,9.30
2022-08-01T18:19:10.209Z,11.10
2022-08-01T18:21:42.974Z,11.10
2022-08-01T18:24:10.109Z,11.10
2022-08-01T18:26:40.464Z,11.10
2022-08-01T18:29:10.540Z,13.90
2022-08-01T18:31:40.204Z,13.90
2022-08-01T18:34:10.397Z,13.90
2022-08-01T18:36:40.485Z,13.90
2022-08-01T18:39:10.810Z,10.80
2022-08-01T18:41:40.243Z,10.80
2022-08-01T18:44:10.212Z,10.80
2022-08-01T18:46:41.090Z,10.80
2022-08-01T18:49:11.856Z,13.10
2022-08-01T18:51:44.235Z,13.10
2022-08-01T18:54:10.461Z,13.10
2022-08-01T18:56:41.176Z,13.10
2022-08-01T18:59:10.526Z,11.90
2022-08-01T19:01:40.567Z,11.90
2022-08-01T19:04:10.280Z,11.90
2022-08-01T19:06:40.601Z,11.90
2022-08-01T19:09:10.102Z,10.80
2022-08-01T19:11:40.671Z,10.80
2022-08-01T19:14:10.134Z,10.80
2022-08-01T19:16:40.188Z,10.80
2022-08-01T19:19:10.527Z,8.70
2022-08-01T19:21:44.668Z,8.70
2022-08-01T19:24:17.602Z,8.70
2022-08-01T19:26:45.781Z,8.70
2022-08-01T19:29:16.493Z,11.00
2022-08-01T19:31:48.546Z,11.00
2022-08-01T19:34:11.758Z,11.00
2022-08-01T19:36:42.545Z,11.00
2022-08-01T19:39:10.716Z,8.70
2022-08-01T19:41:40.652Z,8.70
2022-08-01T19:44:12.123Z,8.70
2022-08-01T19:46:41.091Z,8.70
2022-08-01T19:49:12.513Z,9.80
2022-08-01T19:51:46.149Z,9.80
2022-08-01T19:54:11.390Z,9.80
2022-08-01T19:56:44.234Z,9.80
2022-08-01T19:59:14.889Z,10.20
2022-08-01T20:01:40.179Z,10.20
2022-08-01T20:04:10.957Z,10.20
2022-08-01T20:06:40.245Z,10.20
2022-08-01T20:09:12.019Z,9.20
2022-08-01T20:11:44.237Z,9.20
2022-08-01T20:14:12.240Z,9.20
2022-08-01T20:16:41.230Z,9.20
2022-08-01T20:19:11.543Z,12.00
2022-08-01T20:21:44.414Z,12.00
2022-08-01T20:24:14.121Z,12.00
2022-08-01T20:26:42.038Z,12.00
2022-08-01T20:29:11.387Z,10.70
2022-08-01T20:31:46.473Z,10.70
2022-08-01T20:34:13.557Z,10.70
2022-08-01T20:36:40.501Z,10.70
2022-08-01T20:39:12.768Z,9.20
2022-08-01T20:41:41.725Z,9.20
2022-08-01T20:44:10.845Z,9.20
2022-08-01T20:46:40.534Z,9.20
2022-08-01T20:49:11.083Z,15.30
2022-08-01T20:51:42.560Z,15.30
2022-08-01T20:54:10.607Z,15.30
2022-08-01T20:56:49.916Z,15.30
2022-08-01T20:59:54.705Z,7.70
2022-08-01T21:01:46.913Z,7.70
2022-08-01T21:04:27.539Z,7.70
2022-08-01T21:06:44.962Z,7.70
2022-08-01T21:09:13.076Z,12.40
2022-08-01T21:14:13.326Z,12.40
2022-08-01T21:16:45.382Z,12.40
2022-08-01T21:19:20.887Z,12.70
2022-08-01T21:21:47.407Z,12.70
2022-08-01T21:24:16.130Z,12.70
2022-08-01T21:26:42.917Z,12.70
2022-08-01T21:29:11.314Z,15.40
2022-08-01T21:31:41.455Z,15.40
2022-08-01T21:34:11.246Z,15.40
2022-08-01T21:36:43.991Z,15.40
2022-08-01T21:39:10.622Z,12.40
2022-08-01T21:42:04.953Z,12.40
2022-08-01T21:44:13.563Z,12.40
2022-08-01T21:46:40.345Z,12.40
2022-08-01T21:49:11.448Z,13.20
2022-08-01T21:51:44.588Z,13.20
2022-08-01T21:54:20.496Z,13.20
2022-08-01T21:56:48.685Z,13.20
2022-08-01T21:59:23.030Z,11.10
2022-08-01T22:01:51.379Z,11.10
2022-08-01T22:04:13.973Z,11.10
2022-08-01T22:06:43.262Z,11.10
2022-08-01T22:09:13.012Z,12.30
2022-08-01T22:14:14.029Z,12.30
2022-08-01T22:16:40.765Z,12.30
2022-08-01T22:19:10.396Z,11.70
2022-08-01T22:21:41.018Z,11.70
2022-08-01T22:24:11.387Z,11.70
2022-08-01T22:26:40.724Z,11.70
2022-08-01T22:29:11.906Z,14.30
2022-08-01T22:31:40.747Z,14.30
2022-08-01T22:34:12.604Z,14.30
2022-08-01T22:36:40.401Z,14.30
2022-08-01T22:39:14.886Z,12.20
2022-08-01T22:42:01.927Z,12.20
2022-08-01T22:46:52.144Z,12.20
2022-08-01T22:49:18.537Z,10.20
2022-08-01T22:51:54.638Z,10.20
2022-08-01T22:54:13.004Z,10.20
2022-08-01T22:56:44.113Z,10.20
2022-08-01T22:59:15.809Z,14.50
2022-08-01T23:01:48.004Z,14.50
2022-08-01T23:06:42.087Z,14.50
2022-08-01T23:09:11.195Z,9.10
2022-08-01T23:11:40.267Z,9.10
2022-08-01T23:14:10.694Z,9.10
2022-08-01T23:16:41.604Z,9.10
2022-08-01T23:19:10.826Z,8.70
2022-08-01T23:24:12.720Z,8.70
2022-08-01T23:26:41.276Z,8.70
2022-08-01T23:29:10.899Z,14.10
2022-08-01T23:32:00.232Z,14.10
2022-08-01T23:34:10.206Z,14.10
2022-08-01T23:36:40.642Z,14.10
2022-08-01T23:39:10.304Z,16.00
2022-08-01T23:41:56.145Z,16.00
2022-08-01T23:44:10.300Z,16.00
2022-08-01T23:46:40.234Z,16.00
2022-08-01T23:49:10.512Z,10.70
2022-08-01T23:51:40.282Z,10.70
2022-08-01T23:54:10.285Z,10.70
2022-08-01T23:56:40.351Z,10.70
2022-08-01T23:59:12.129Z,13.00
